Time;durP1;ratioP1;P1;durP2;ratioP2;P2;SDS_P1;SDS_P2;PMS_P1;PMS_P2;Temp;Humidity;BMP_temperature;BMP_pressure;BME280_temperature;BME280_humidity;BME280_pressure;Samples;Min_cycle;Max_cycle;Signal;HPM_P1;HPM_P2
2022/11/11 00:00:11;;;;;;;22.23;13.20;;;;;;;4.13;100.00;101605.72;5032447;28;20183;-61
2022/11/11 00:02:36;;;;;;;25.27;13.67;;;;;;;4.20;100.00;101607.41;5020927;28;20261;-61
2022/11/11 00:05:01;;;;;;;26.67;13.43;;;;;;;4.15;100.00;101609.09;5033651;28;20236;-61
2022/11/11 00:07:27;;;;;;;24.73;12.90;;;;;;;4.07;100.00;101602.31;5045300;28;20178;-62
2022/11/11 00:09:52;;;;;;;20.37;12.13;;;;;;;4.03;100.00;101606.59;5049675;28;20227;-62
2022/11/11 00:12:17;;;;;;;19.83;12.67;;;;;;;3.83;100.00;101614.28;5023745;28;20619;-61
2022/11/11 00:14:42;;;;;;;20.57;13.77;;;;;;;3.72;100.00;101617.69;5051481;28;20328;-62
2022/11/11 00:25:23;;;;;;;22.07;13.23;;;;;;;3.86;100.00;101607.50;5051788;28;20652;-63
2022/11/11 00:27:49;;;;;;;26.60;14.57;;;;;;;3.88;100.00;101607.47;5050539;28;20181;-63
2022/11/11 00:30:14;;;;;;;24.20;14.37;;;;;;;3.87;100.00;101601.53;5022169;28;20258;-62
2022/11/11 00:32:39;;;;;;;23.57;14.37;;;;;;;3.80;100.00;101596.47;5038538;28;20593;-63
2022/11/11 00:37:49;;;;;;;23.37;14.27;;;;;;;3.84;100.00;101609.19;5050982;28;20336;-63
2022/11/11 00:40:14;;;;;;;26.73;14.67;;;;;;;3.85;100.00;101612.59;5041702;28;20270;-62
2022/11/11 00:42:40;;;;;;;29.23;16.80;;;;;;;3.90;100.00;101617.69;5065591;28;20268;-61
2022/11/11 00:45:06;;;;;;;32.20;17.20;;;;;;;3.98;100.00;101621.03;5051045;28;20177;-61
2022/11/11 00:53:11;;;;;;;142.87;24.00;;;;;;;4.36;100.00;101620.06;5052423;28;20196;-60
2022/11/11 00:55:37;;;;;;;83.77;22.77;;;;;;;4.26;100.00;101631.16;5032631;28;20628;-61
2022/11/11 00:58:02;;;;;;;137.37;24.87;;;;;;;4.40;100.00;101626.00;5057180;28;20300;-63
2022/11/11 01:00:27;;;;;;;348.47;31.00;;;;;;;4.43;100.00;101626.81;5044128;28;20748;-61
2022/11/11 01:02:53;;;;;;;63.53;19.47;;;;;;;4.45;100.00;101634.47;5046341;28;20680;-61
2022/11/11 01:05:19;;;;;;;245.27;28.03;;;;;;;4.68;100.00;101637.72;5050790;28;20185;-62
2022/11/11 01:07:44;;;;;;;172.70;24.40;;;;;;;4.61;100.00;101641.16;5050556;28;20242;-62
2022/11/11 01:10:10;;;;;;;83.57;16.63;;;;;;;4.77;100.00;101652.13;5041525;28;20192;-62
2022/11/11 01:12:36;;;;;;;242.93;21.37;;;;;;;4.78;100.00;101653.00;5065086;28;20696;-62
2022/11/11 01:15:01;;;;;;;77.53;13.80;;;;;;;4.58;100.00;101655.66;5050782;28;20182;-62
2022/11/11 01:17:28;;;;;;;39.93;11.60;;;;;;;4.66;100.00;101646.25;5050282;28;20190;-61
2022/11/11 01:19:53;;;;;;;47.00;11.23;;;;;;;4.62;100.00;101636.94;5032814;28;20174;-61
2022/11/11 01:22:18;;;;;;;27.40;9.70;;;;;;;4.67;100.00;101637.75;5056089;28;20674;-61
2022/11/11 01:24:45;;;;;;;28.67;9.77;;;;;;;4.59;100.00;101624.19;5050838;28;20217;-62
2022/11/11 01:27:10;;;;;;;30.40;10.00;;;;;;;4.58;100.00;101622.53;5032822;28;20580;-61
2022/11/11 01:29:35;;;;;;;30.00;10.67;;;;;;;4.50;100.00;101620.84;5050634;28;20182;-62
2022/11/11 01:32:00;;;;;;;26.63;9.97;;;;;;;4.49;100.00;101618.28;5057418;28;20220;-62
2022/11/11 01:34:26;;;;;;;27.00;11.43;;;;;;;4.51;100.00;101625.09;5054302;28;20189;-62
2022/11/11 01:36:52;;;;;;;25.63;11.60;;;;;;;4.53;100.00;101622.53;5053921;28;20652;-63
2022/11/11 01:39:17;;;;;;;24.83;10.70;;;;;;;4.36;100.00;101607.31;5037064;28;20173;-62
2022/11/11 01:41:42;;;;;;;16.73;11.23;;;;;;;4.32;100.00;101609.03;5056979;28;20227;-62
2022/11/11 01:44:10;;;;;;;17.33;11.97;;;;;;;4.18;100.00;101608.22;5056999;28;20252;-62
2022/11/11 01:46:53;;;;;;;15.57;10.67;;;;;;;3.98;100.00;101605.75;5053973;28;20731;-63
2022/11/11 01:49:30;;;;;;;14.87;10.27;;;;;;;3.98;100.00;101603.22;5023819;28;20173;-62
2022/11/11 01:52:04;;;;;;;16.70;10.73;;;;;;;3.96;100.00;101603.22;5056794;28;20220;-62
2022/11/11 01:54:45;;;;;;;23.73;11.03;;;;;;;4.08;100.00;101611.66;5031453;28;20575;-63
2022/11/11 01:57:21;;;;;;;22.10;10.73;;;;;;;4.12;100.00;101629.50;5028902;28;20267;-63
2022/11/11 01:59:49;;;;;;;16.17;10.63;;;;;;;4.02;100.00;101633.75;5054250;28;20200;-62
2022/11/11 02:02:23;;;;;;;17.40;11.33;;;;;;;4.22;100.00;101632.84;5042134;28;20228;-63
2022/11/11 02:07:35;;;;;;;41.03;11.17;;;;;;;4.41;100.00;101627.69;5053763;28;20248;-64
2022/11/11 02:10:04;;;;;;;42.87;10.73;;;;;;;4.42;100.00;101629.38;5035882;28;20224;-62
2022/11/11 02:15:13;;;;;;;38.73;11.70;;;;;;;4.72;100.00;101623.28;5053815;28;20223;-62
2022/11/11 02:17:39;;;;;;;44.73;12.33;;;;;;;4.65;100.00;101619.94;5068654;28;20194;-62
2022/11/11 02:20:07;;;;;;;30.27;10.30;;;;;;;4.67;100.00;101605.44;5025690;28;20586;-62
2022/11/11 02:22:43;;;;;;;49.27;13.47;;;;;;;4.88;100.00;101601.09;5068356;28;20194;-62
2022/11/11 02:25:12;;;;;;;45.33;12.83;;;;;;;5.10;100.00;101608.59;5035828;28;20177;-63
2022/11/11 02:27:41;;;;;;;36.33;12.67;;;;;;;5.11;100.00;101606.03;5068258;28;20242;-62
2022/11/11 02:30:14;;;;;;;37.47;12.20;;;;;;;4.96;100.00;101608.66;5058594;28;20669;-62
2022/11/11 02:32:40;;;;;;;62.73;13.30;;;;;;;5.22;100.00;101616.16;5067616;28;20648;-64
2022/11/11 02:35:37;;;;;;;55.33;13.40;;;;;;;5.22;100.00;101612.75;5035252;28;20173;-62
2022/11/11 02:38:07;;;;;;;56.50;12.57;;;;;;;5.35;100.00;101616.88;4952022;28;20230;-63
2022/11/11 02:40:37;;;;;;;121.70;14.43;;;;;;;5.40;100.00;101624.50;4942291;28;20273;-63
2022/11/11 02:43:03;;;;;;;60.67;13.87;;;;;;;5.41;100.00;101623.63;4936467;28;20217;-63
2022/11/11 02:45:28;;;;;;;117.00;15.87;;;;;;;5.41;100.00;101621.94;4952685;28;20188;-62
2022/11/11 02:47:53;;;;;;;148.20;16.57;;;;;;;5.40;100.00;101643.22;4952463;28;20197;-62
2022/11/11 02:50:19;;;;;;;64.53;14.97;;;;;;;5.41;100.00;101661.91;4942124;28;20197;-62
2022/11/11 02:52:44;;;;;;;43.57;12.97;;;;;;;5.29;100.00;101656.06;4941911;28;20191;-64
2022/11/11 02:55:10;;;;;;;46.13;13.40;;;;;;;5.52;100.00;101649.94;4946095;29;20197;-64
2022/11/11 02:57:36;;;;;;;60.77;14.00;;;;;;;5.56;100.00;101646.50;4930738;29;20181;-63
2022/11/11 03:00:02;;;;;;;32.10;13.37;;;;;;;5.71;100.00;101642.94;4952671;28;20185;-61
2022/11/11 03:02:28;;;;;;;55.47;13.77;;;;;;;5.68;100.00;101643.00;4926939;29;20228;-60
2022/11/11 03:04:54;;;;;;;61.73;13.73;;;;;;;5.73;100.00;101648.91;4952881;28;20648;-60
2022/11/11 03:07:24;;;;;;;62.67;14.17;;;;;;;5.59;100.00;101651.53;4935880;29;20294;-60
2022/11/11 03:09:49;;;;;;;84.70;16.50;;;;;;;5.63;100.00;101650.69;4936126;29;20223;-61
2022/11/11 03:12:15;;;;;;;69.73;16.07;;;;;;;5.71;100.00;101650.59;4926169;28;20237;-60
2022/11/11 03:14:41;;;;;;;57.67;13.97;;;;;;;5.75;100.00;101651.44;4994252;28;20207;-60
2022/11/11 03:19:50;;;;;;;97.73;16.53;;;;;;;5.82;100.00;101656.44;5052781;28;20242;-63
2022/11/11 03:22:15;;;;;;;73.47;16.40;;;;;;;5.80;100.00;101665.84;5057366;28;20225;-61
2022/11/11 03:27:24;;;;;;;173.40;18.77;;;;;;;5.82;100.00;101671.78;5051876;28;20218;-62
2022/11/11 03:29:50;;;;;;;117.07;19.87;;;;;;;5.79;100.00;101673.50;5052524;28;20587;-61
2022/11/11 03:32:15;;;;;;;98.10;16.73;;;;;;;5.84;100.00;101681.13;5056823;28;20228;-61
2022/11/11 03:34:40;;;;;;;124.03;17.10;;;;;;;5.76;100.00;101681.22;5052147;28;20210;-61
2022/11/11 03:39:51;;;;;;;150.70;17.53;;;;;;;5.61;100.00;101687.28;5052196;28;20189;-61
2022/11/11 03:42:17;;;;;;;105.77;16.13;;;;;;;5.56;100.00;101677.13;5057767;28;20220;-61
2022/11/11 03:44:42;;;;;;;133.27;16.63;;;;;;;5.42;100.00;101679.78;5052305;28;20190;-61
2022/11/11 03:47:07;;;;;;;108.23;14.93;;;;;;;5.50;100.00;101677.16;5051487;28;20547;-62
2022/11/11 03:49:32;;;;;;;305.47;22.60;;;;;;;5.39;100.00;101678.97;5033812;28;20228;-62
2022/11/11 03:51:58;;;;;;;129.03;17.60;;;;;;;5.52;100.00;101670.34;5051486;28;20231;-63
2022/11/11 03:54:23;;;;;;;93.13;17.60;;;;;;;5.68;100.00;101677.88;5051709;28;20736;-61
2022/11/11 03:56:48;;;;;;;193.30;20.40;;;;;;;5.66;100.00;101676.16;5047686;28;20185;-62
2022/11/11 03:59:13;;;;;;;87.80;16.03;;;;;;;5.80;100.00;101677.75;5052293;28;20346;-62
2022/11/11 04:18:08;;;;;;;107.07;15.17;;;;;;;5.50;100.00;101688.22;5046581;28;20451;-61
2022/11/11 04:23:17;;;;;;;128.17;16.03;;;;;;;5.47;100.00;101695.91;5048187;28;20188;-62
2022/11/11 04:25:48;;;;;;;115.03;16.47;;;;;;;5.60;100.00;101701.75;5051376;28;20192;-60
2022/11/11 04:30:57;;;;;;;231.27;18.20;;;;;;;5.30;100.00;101713.06;5013517;28;20603;-60
2022/11/11 04:33:22;;;;;;;59.07;13.90;;;;;;;5.26;100.00;101709.66;5050491;28;20178;-62
2022/11/11 04:35:49;;;;;;;77.07;12.90;;;;;;;5.39;100.00;101714.69;5051138;28;20198;-60
2022/11/11 04:41:04;;;;;;;53.40;10.57;;;;;;;5.24;100.00;101708.00;5025032;28;20259;-62
2022/11/11 04:43:30;;;;;;;59.47;12.13;;;;;;;5.32;100.00;101693.44;5038169;28;20177;-63
2022/11/11 04:45:59;;;;;;;38.87;10.33;;;;;;;5.13;100.00;101693.56;5053493;28;20277;-62
2022/11/11 04:48:24;;;;;;;26.00;10.73;;;;;;;5.16;100.00;101690.19;5009578;28;20182;-63
2022/11/11 04:50:50;;;;;;;30.17;10.10;;;;;;;5.22;100.00;101694.38;5033230;28;20216;-62
2022/11/11 04:53:16;;;;;;;18.13;9.87;;;;;;;5.37;100.00;101693.44;5040477;28;20174;-62
2022/11/11 04:58:29;;;;;;;21.50;9.83;;;;;;;5.32;100.00;101684.09;5029985;28;20575;-63
2022/11/11 05:00:54;;;;;;;32.17;10.40;;;;;;;5.41;100.00;101685.75;5030078;28;20224;-64
2022/11/11 05:03:23;;;;;;;18.57;8.37;;;;;;;5.36;100.00;101690.03;5049324;28;20187;-63
2022/11/11 05:08:55;;;;;;;29.20;9.17;;;;;;;5.22;100.00;101697.81;5034764;28;20193;-63
2022/11/11 05:11:26;;;;;;;42.17;9.40;;;;;;;5.11;100.00;101704.66;5029267;28;20254;-62
2022/11/11 05:22:33;;;;;;;20.53;8.77;;;;;;;4.76;100.00;101706.53;5057256;28;20349;-62
2022/11/11 05:27:42;;;;;;;31.80;8.63;;;;;;;4.98;100.00;101697.06;5034123;28;20503;-63
2022/11/11 05:30:10;;;;;;;19.70;7.80;;;;;;;5.03;100.00;101698.75;5025902;28;20179;-63
2022/11/11 05:32:36;;;;;;;36.37;8.63;;;;;;;5.05;100.00;101697.03;5048795;28;20240;-63
2022/11/11 05:35:01;;;;;;;18.47;8.50;;;;;;;5.07;100.00;101698.72;5034542;28;20259;-63
2022/11/11 05:37:26;;;;;;;31.67;8.10;;;;;;;5.05;100.00;101695.34;5041614;28;20229;-63
2022/11/11 05:39:52;;;;;;;12.30;8.30;;;;;;;4.96;100.00;101698.78;5054892;28;20583;-63
2022/11/11 05:42:18;;;;;;;10.03;7.73;;;;;;;5.00;100.00;101703.00;5042743;28;20222;-62
2022/11/11 05:44:44;;;;;;;12.30;7.60;;;;;;;4.92;100.00;101703.91;5053382;28;20180;-63
2022/11/11 05:47:10;;;;;;;11.00;7.47;;;;;;;4.93;100.00;101710.72;5053950;28;20192;-64
2022/11/11 05:49:35;;;;;;;8.73;7.00;;;;;;;4.96;100.00;101711.53;5054403;28;20271;-63
2022/11/11 05:52:01;;;;;;;16.83;7.77;;;;;;;4.93;100.00;101719.19;5058291;28;20222;-63
2022/11/11 05:54:27;;;;;;;10.97;6.60;;;;;;;4.94;100.00;101715.78;5036729;28;20644;-63
2022/11/11 05:56:52;;;;;;;16.60;8.33;;;;;;;5.14;100.00;101715.69;5050104;28;20228;-63
2022/11/11 05:59:18;;;;;;;11.93;6.97;;;;;;;4.94;100.00;101720.91;5057474;28;20210;-62
2022/11/11 06:01:43;;;;;;;14.70;7.20;;;;;;;4.79;100.00;101711.63;5048639;28;20217;-63
2022/11/11 06:04:08;;;;;;;20.40;8.50;;;;;;;4.63;100.00;101725.28;5053550;28;20205;-62
2022/11/11 06:06:35;;;;;;;34.63;8.90;;;;;;;4.73;100.00;101731.22;5053635;28;20277;-62
2022/11/11 06:09:00;;;;;;;22.97;8.13;;;;;;;4.70;100.00;101729.50;5036015;28;20228;-63
2022/11/11 06:11:26;;;;;;;20.53;8.10;;;;;;;4.74;100.00;101728.66;5036618;28;20228;-62
2022/11/11 06:13:52;;;;;;;17.70;7.57;;;;;;;4.87;100.00;101724.31;5041236;28;20233;-63
2022/11/11 06:16:18;;;;;;;14.23;8.63;;;;;;;5.02;100.00;101723.41;5034988;28;20185;-64
2022/11/11 06:18:43;;;;;;;15.50;8.20;;;;;;;4.97;100.00;101725.13;5053028;28;20183;-62
2022/11/11 06:21:09;;;;;;;9.83;7.10;;;;;;;5.00;100.00;101732.78;5042644;28;20232;-63
2022/11/11 06:23:34;;;;;;;15.17;8.03;;;;;;;5.01;100.00;101740.41;5045719;28;20184;-63
2022/11/11 06:26:15;;;;;;;18.73;8.83;;;;;;;4.98;100.00;101739.59;5052877;28;20744;-63
2022/11/11 06:28:45;;;;;;;21.27;8.70;;;;;;;4.93;100.00;101749.81;5034150;28;20165;-63
2022/11/11 06:31:15;;;;;;;17.17;9.27;;;;;;;4.98;100.00;101749.78;5018273;28;20225;-63
2022/11/11 06:33:41;;;;;;;20.13;9.50;;;;;;;5.07;100.00;101751.44;5034460;28;20209;-63
2022/11/11 06:36:09;;;;;;;10.17;7.77;;;;;;;5.23;100.00;101749.66;5053008;28;20609;-62
2022/11/11 06:38:34;;;;;;;10.83;7.73;;;;;;;5.09;100.00;101749.75;5034458;28;20231;-62
2022/11/11 06:40:59;;;;;;;9.97;7.77;;;;;;;4.92;100.00;101753.19;5038009;28;20336;-63
2022/11/11 06:43:25;;;;;;;37.00;8.73;;;;;;;4.95;100.00;101755.75;5054889;28;20194;-62
2022/11/11 06:45:52;;;;;;;14.93;6.83;;;;;;;4.99;100.00;101761.69;5035540;28;20170;-63
2022/11/11 06:48:17;;;;;;;27.07;8.00;;;;;;;5.05;100.00;101761.66;5034508;28;20543;-62
2022/11/11 06:50:43;;;;;;;20.07;8.20;;;;;;;5.12;100.00;101767.56;5030270;28;20227;-62
2022/11/11 06:53:14;;;;;;;15.20;7.57;;;;;;;5.07;100.00;101772.69;5063369;28;20191;-64
2022/11/11 06:55:41;;;;;;;25.40;7.53;;;;;;;4.97;100.00;101776.13;5035102;28;20173;-63
2022/11/11 06:58:11;;;;;;;23.17;7.13;;;;;;;4.82;100.00;101777.06;5031988;28;20242;-62
2022/11/11 07:00:38;;;;;;;22.23;7.57;;;;;;;4.85;100.00;101769.41;5047254;28;20321;-62
2022/11/11 07:03:04;;;;;;;29.57;7.90;;;;;;;4.75;100.00;101775.38;5046603;28;20185;-63
2022/11/11 07:05:29;;;;;;;15.07;8.03;;;;;;;5.01;100.00;101773.56;5034710;28;20177;-63
2022/11/11 07:07:55;;;;;;;22.23;8.80;;;;;;;5.11;100.00;101773.53;5052254;28;20166;-63
2022/11/11 07:10:20;;;;;;;21.23;7.80;;;;;;;5.19;100.00;101776.06;5045008;28;20594;-63
2022/11/11 07:12:46;;;;;;;16.10;8.60;;;;;;;5.37;100.00;101775.94;5065577;28;20331;-63
2022/11/11 07:15:11;;;;;;;18.40;8.27;;;;;;;5.35;100.00;101777.66;5052787;28;20664;-63
2022/11/11 07:17:36;;;;;;;25.73;8.23;;;;;;;5.53;100.00;101786.06;5051916;28;20515;-63
2022/11/11 07:20:03;;;;;;;42.50;8.57;;;;;;;5.29;100.00;101795.56;5065574;28;20227;-65
2022/11/11 07:22:28;;;;;;;17.37;8.13;;;;;;;4.99;100.00;101787.19;5048050;28;20202;-64
2022/11/11 07:24:53;;;;;;;26.50;9.03;;;;;;;5.20;100.00;101787.94;5052673;28;20181;-62
2022/11/11 07:27:18;;;;;;;51.07;7.77;;;;;;;5.29;100.00;101796.38;5052058;28;20242;-63
2022/11/11 07:29:44;;;;;;;26.20;9.43;;;;;;;5.60;100.00;101795.38;5033410;28;20181;-62
2022/11/11 07:32:09;;;;;;;37.63;7.97;;;;;;;5.69;100.00;101786.81;5057343;28;20671;-63
2022/11/11 07:34:34;;;;;;;24.97;7.93;;;;;;;5.52;100.00;101787.78;5052531;28;20627;-63
2022/11/11 07:37:00;;;;;;;23.37;7.80;;;;;;;5.44;100.00;101781.84;5051314;28;20229;-63
2022/11/11 07:39:25;;;;;;;17.17;8.13;;;;;;;5.49;100.00;101791.19;5052376;28;20712;-63
2022/11/11 07:41:50;;;;;;;32.43;9.23;;;;;;;5.45;100.00;101791.22;5055751;28;20316;-63
2022/11/11 07:44:15;;;;;;;36.43;9.27;;;;;;;5.65;100.00;101789.34;5053812;28;20189;-62
2022/11/11 07:46:41;;;;;;;39.40;8.50;;;;;;;5.48;100.00;101794.59;5051599;28;20217;-63
2022/11/11 07:49:06;;;;;;;15.90;7.90;;;;;;;5.82;100.00;101801.19;5051870;28;20244;-62
2022/11/11 07:51:31;;;;;;;34.97;9.00;;;;;;;5.71;100.00;101800.41;5042785;28;20234;-63
2022/11/11 07:53:57;;;;;;;33.23;7.00;;;;;;;5.77;100.00;101798.66;5051555;28;20253;-72
2022/11/11 07:56:22;;;;;;;25.00;7.50;;;;;;;5.90;100.00;101804.50;5045910;28;20188;-62
2022/11/11 07:58:47;;;;;;;21.70;7.57;;;;;;;5.88;100.00;101811.34;5057065;28;20261;-63
2022/11/11 08:01:13;;;;;;;35.87;7.83;;;;;;;5.72;100.00;101813.16;5037133;28;20745;-63
2022/11/11 08:03:48;;;;;;;25.43;7.70;;;;;;;5.98;100.00;101814.69;5051259;28;20189;-63
2022/11/11 08:06:16;;;;;;;25.83;7.50;;;;;;;5.85;100.00;101813.06;5033242;28;20192;-67
2022/11/11 08:08:41;;;;;;;20.67;7.37;;;;;;;6.09;100.00;101818.03;5032747;28;20180;-63
2022/11/11 08:11:06;;;;;;;15.27;7.47;;;;;;;5.95;100.00;101827.47;5036871;28;20645;-64
2022/11/11 08:13:42;;;;;;;30.30;7.70;;;;;;;5.65;100.00;101826.81;5048774;28;20183;-62
2022/11/11 08:16:08;;;;;;;35.20;7.87;;;;;;;5.79;100.00;101830.16;5026566;28;20218;-62
2022/11/11 08:18:34;;;;;;;12.60;8.37;;;;;;;6.02;100.00;101838.53;5049798;28;20200;-62
2022/11/11 08:21:01;;;;;;;41.47;8.93;;;;;;;6.24;100.00;101841.75;5039541;28;20649;-62
2022/11/11 08:23:33;;;;;;;22.23;9.30;;;;;;;6.15;100.00;101840.09;5027516;28;20215;-62
2022/11/11 08:26:00;;;;;;;23.77;8.70;;;;;;;6.28;100.00;101835.75;5032818;28;20196;-62
2022/11/11 08:28:27;;;;;;;22.33;7.83;;;;;;;6.28;100.00;101841.72;5032348;28;20642;-62
2022/11/11 08:30:52;;;;;;;22.23;8.40;;;;;;;6.52;100.00;101839.78;4996764;28;20221;-62
2022/11/11 08:33:18;;;;;;;46.43;8.17;;;;;;;6.52;100.00;101836.38;5032392;28;20263;-62
2022/11/11 08:35:43;;;;;;;27.93;9.60;;;;;;;6.74;100.00;101834.47;5050248;28;20658;-62
2022/11/11 08:38:09;;;;;;;30.37;8.63;;;;;;;6.69;100.00;101834.50;5050065;28;20851;-62
2022/11/11 08:40:34;;;;;;;17.93;8.57;;;;;;;6.98;100.00;101835.88;5045035;28;20266;-61
2022/11/11 08:42:59;;;;;;;21.37;8.67;;;;;;;6.99;100.00;101834.19;5062680;28;20177;-63
2022/11/11 08:45:25;;;;;;;22.90;9.33;;;;;;;7.02;100.00;101832.44;5050826;28;20208;-63
2022/11/11 08:47:50;;;;;;;12.93;8.87;;;;;;;6.97;100.00;101835.91;5049969;28;20539;-63
2022/11/11 08:50:16;;;;;;;10.70;8.43;;;;;;;7.02;100.00;101822.22;5022448;28;20675;-62
2022/11/11 08:52:46;;;;;;;20.07;8.67;;;;;;;7.21;100.00;101827.94;5043596;28;20215;-62
2022/11/11 08:55:12;;;;;;;22.80;8.63;;;;;;;7.31;100.00;101831.22;5050566;28;20544;-61
2022/11/11 08:57:37;;;;;;;15.90;8.83;;;;;;;7.57;100.00;101824.91;5046424;28;20184;-61
2022/11/11 09:00:04;;;;;;;17.70;8.70;;;;;;;7.61;100.00;101821.44;5021906;28;20175;-61
2022/11/11 09:02:29;;;;;;;15.83;8.70;;;;;;;7.61;100.00;101820.59;5035918;28;20222;-62
2022/11/11 09:04:55;;;;;;;14.27;8.83;;;;;;;7.57;100.00;101806.97;5037068;28;20259;-66
2022/11/11 09:07:20;;;;;;;14.97;9.20;;;;;;;7.60;100.00;101812.03;5050158;28;20551;-62
2022/11/11 09:09:45;;;;;;;18.93;8.40;;;;;;;7.43;100.00;101808.03;5050955;28;20189;-62
2022/11/11 09:12:11;;;;;;;16.87;9.13;;;;;;;7.64;100.00;101808.59;5037308;28;20223;-63
2022/11/11 09:14:36;;;;;;;11.53;9.37;;;;;;;7.68;100.00;101799.97;5049863;28;20178;-63
2022/11/11 09:17:01;;;;;;;12.77;9.97;;;;;;;7.49;100.00;101803.69;5049425;28;20173;-62
2022/11/11 09:19:26;;;;;;;13.03;10.00;;;;;;;7.60;100.00;101809.47;5050561;28;20624;-62
2022/11/11 09:21:52;;;;;;;11.13;9.40;;;;;;;7.61;100.00;101816.31;5020783;28;20256;-62
2022/11/11 09:24:17;;;;;;;12.30;10.00;;;;;;;7.59;100.00;101824.03;5039317;28;20177;-62
2022/11/11 09:26:43;;;;;;;11.53;10.33;;;;;;;8.02;100.00;101816.53;5050099;28;20662;-62
2022/11/11 09:29:08;;;;;;;15.57;11.07;;;;;;;7.84;100.00;101818.53;5050194;28;20186;-62
2022/11/11 09:31:33;;;;;;;12.50;10.50;;;;;;;7.81;100.00;101820.28;5029726;28;20222;-62
2022/11/11 09:33:59;;;;;;;13.27;11.40;;;;;;;7.87;100.00;101823.59;5049203;28;20181;-62
2022/11/11 09:36:25;;;;;;;14.50;10.60;;;;;;;7.96;100.00;101824.31;5050029;28;20243;-62
2022/11/11 09:38:50;;;;;;;12.37;10.87;;;;;;;7.69;100.00;101819.59;5050706;28;20298;-61
2022/11/11 09:41:20;;;;;;;16.70;11.10;;;;;;;7.68;100.00;101819.63;5043451;28;20288;-62
2022/11/11 09:43:55;;;;;;;13.47;10.67;;;;;;;7.87;100.00;101830.44;5035933;28;20782;-60
2022/11/11 09:46:32;;;;;;;12.17;10.73;;;;;;;8.01;100.00;101831.09;5017955;28;20201;-61
2022/11/11 09:49:19;;;;;;;12.77;10.27;;;;;;;8.29;100.00;101832.34;5030878;28;20177;-61
2022/11/11 09:52:27;;;;;;;11.13;9.70;;;;;;;8.42;100.00;101831.22;5007940;28;20276;-61
2022/11/11 09:55:01;;;;;;;15.03;11.47;;;;;;;8.52;100.00;101837.06;4972737;28;20207;-60
2022/11/11 09:57:37;;;;;;;14.00;9.93;;;;;;;8.55;100.00;101827.59;4970991;28;20188;-62
2022/11/11 10:00:13;;;;;;;13.63;10.93;;;;;;;8.61;100.00;101831.78;4954278;28;20192;-62
2022/11/11 10:02:50;;;;;;;13.03;11.33;;;;;;;8.23;100.00;101823.84;4957536;28;20219;-61
2022/11/11 10:05:18;;;;;;;12.47;10.70;;;;;;;8.33;100.00;101819.41;4956035;28;20570;-60
2022/11/11 10:07:56;;;;;;;12.93;10.93;;;;;;;8.49;100.00;101822.59;4972262;28;20188;-60
2022/11/11 10:10:32;;;;;;;12.43;9.73;;;;;;;8.59;100.00;101812.16;4962049;28;20274;-60
2022/11/11 10:12:57;;;;;;;12.77;10.83;;;;;;;8.88;100.00;101814.16;4955899;28;20679;-61
2022/11/11 10:15:32;;;;;;;20.43;11.43;;;;;;;8.85;100.00;101807.38;4972629;28;20227;-61
2022/11/11 10:18:28;;;;;;;16.03;10.27;;;;;;;8.63;100.00;101812.06;4955816;28;20362;-60
2022/11/11 10:20:54;;;;;;;11.07;9.93;;;;;;;8.65;100.00;101807.75;4962038;28;20268;-61
2022/11/11 10:23:31;;;;;;;11.50;9.97;;;;;;;8.46;100.00;101804.72;4955507;28;20246;-63
2022/11/11 10:26:10;;;;;;;12.47;9.80;;;;;;;8.30;100.00;101811.78;5007361;28;20288;-60
2022/11/11 10:28:39;;;;;;;10.30;8.90;;;;;;;8.35;100.00;101809.16;5052109;28;20256;-55
2022/11/11 10:31:13;;;;;;;10.63;9.40;;;;;;;8.03;100.00;101806.25;5039203;28;20248;-61
2022/11/11 10:33:45;;;;;;;10.83;9.17;;;;;;;8.14;100.00;101810.38;5052785;28;20277;-61
2022/11/11 10:36:16;;;;;;;13.33;9.83;;;;;;;8.15;100.00;101812.91;5052798;28;20247;-66
2022/11/11 10:39:04;;;;;;;16.83;10.27;;;;;;;7.97;100.00;101808.09;5030474;28;20584;-59
2022/11/11 10:41:36;;;;;;;11.53;9.70;;;;;;;7.86;100.00;101805.69;5022582;28;20232;-60
2022/11/11 10:44:25;;;;;;;12.07;9.93;;;;;;;7.93;100.00;101812.41;5027519;28;20640;-60
2022/11/11 10:47:02;;;;;;;13.40;9.63;;;;;;;7.83;100.00;101813.44;5052614;28;20173;-60
2022/11/11 10:49:32;;;;;;;12.87;10.43;;;;;;;8.06;100.00;101805.34;5032601;28;20181;-61
2022/11/11 10:52:13;;;;;;;15.47;10.90;;;;;;;8.46;100.00;101801.25;5009260;28;20229;-61
2022/11/11 10:55:12;;;;;;;12.57;11.03;;;;;;;8.67;100.00;101800.03;5028952;28;20192;-61
2022/11/11 10:57:42;;;;;;;15.30;10.30;;;;;;;8.66;100.00;101803.50;5053694;28;20177;-61
2022/11/11 11:00:12;;;;;;;11.70;10.20;;;;;;;8.39;100.00;101798.78;5042066;28;20226;-62
2022/11/11 11:03:14;;;;;;;14.67;10.07;;;;;;;8.19;100.00;101796.59;5035440;28;20273;-62
2022/11/11 11:05:56;;;;;;;16.43;11.03;;;;;;;8.16;100.00;101798.34;5048829;28;20260;-62
2022/11/11 11:08:27;;;;;;;11.80;10.60;;;;;;;8.28;100.00;101790.47;5034246;28;20177;-61
2022/11/11 11:11:03;;;;;;;13.33;11.40;;;;;;;8.21;100.00;101796.56;5024418;28;20236;-61
2022/11/11 11:13:42;;;;;;;12.50;10.70;;;;;;;8.37;100.00;101792.88;5033523;28;20235;-61
2022/11/11 11:16:17;;;;;;;12.33;11.00;;;;;;;8.37;100.00;101794.56;5034105;28;20543;-61
2022/11/11 11:18:43;;;;;;;12.70;10.97;;;;;;;8.26;100.00;101794.78;5031875;28;20181;-62
2022/11/11 11:21:09;;;;;;;13.60;11.47;;;;;;;8.46;100.00;101789.31;5041475;28;20225;-62
2022/11/11 11:23:37;;;;;;;14.87;11.87;;;;;;;8.60;100.00;101783.09;5031304;28;20641;-62
2022/11/11 11:26:04;;;;;;;16.13;11.60;;;;;;;8.19;100.00;101785.50;5033909;28;20181;-63
2022/11/11 11:28:30;;;;;;;12.77;11.33;;;;;;;8.08;100.00;101778.81;5033318;28;20193;-61
2022/11/11 11:31:02;;;;;;;16.07;12.07;;;;;;;8.17;100.00;101780.38;5020271;28;20343;-62
2022/11/11 11:33:51;;;;;;;14.73;12.23;;;;;;;8.16;100.00;101783.84;5046614;28;20185;-61
2022/11/11 11:36:18;;;;;;;13.77;12.37;;;;;;;8.55;100.00;101789.13;5032476;28;20693;-61
2022/11/11 11:38:46;;;;;;;13.23;11.83;;;;;;;8.55;100.00;101783.16;5034006;28;20217;-62
2022/11/11 11:41:12;;;;;;;12.53;10.53;;;;;;;8.58;100.00;101780.53;5033694;28;20220;-61
2022/11/11 11:43:41;;;;;;;12.10;10.90;;;;;;;8.51;100.00;101774.69;5058367;28;20193;-62
2022/11/11 11:46:25;;;;;;;15.13;12.30;;;;;;;8.50;100.00;101783.25;5029162;28;20260;-62
2022/11/11 11:48:50;;;;;;;13.13;11.17;;;;;;;8.46;100.00;101775.59;5049155;28;20224;-62
2022/11/11 11:51:40;;;;;;;13.57;12.17;;;;;;;8.70;100.00;101780.28;5031604;28;20261;-62
2022/11/11 11:54:24;;;;;;;12.90;11.40;;;;;;;8.14;100.00;101783.00;5030059;28;20197;-62
2022/11/11 11:56:51;;;;;;;15.70;12.37;;;;;;;8.20;100.00;101779.50;5046734;28;20188;-62
2022/11/11 11:59:42;;;;;;;15.27;11.60;;;;;;;8.26;100.00;101781.97;5023743;28;20524;-61
2022/11/11 12:02:22;;;;;;;14.23;12.00;;;;;;;8.12;100.00;101778.78;5000700;28;20225;-61
2022/11/11 12:05:09;;;;;;;15.63;13.30;;;;;;;7.88;100.00;101786.84;5040364;28;20604;-62
2022/11/11 12:07:51;;;;;;;14.10;12.27;;;;;;;7.63;100.00;101791.53;5033691;28;20545;-63
2022/11/11 12:10:43;;;;;;;16.57;11.97;;;;;;;7.58;100.00;101801.00;5023307;28;20188;-62
2022/11/11 12:13:37;;;;;;;15.50;13.33;;;;;;;7.55;100.00;101804.44;5037646;28;20226;-62
2022/11/11 12:16:21;;;;;;;16.73;12.23;;;;;;;7.77;100.00;101801.56;5043081;28;20229;-63
2022/11/11 12:19:23;;;;;;;15.63;11.67;;;;;;;7.97;100.00;101795.28;5033766;28;20663;-62
2022/11/11 12:21:58;;;;;;;16.40;13.13;;;;;;;8.37;100.00;101799.69;5030688;28;20227;-61
2022/11/11 12:24:35;;;;;;;15.47;12.63;;;;;;;8.35;100.00;101789.47;5049204;28;20177;-62
2022/11/11 12:27:12;;;;;;;16.17;12.90;;;;;;;8.52;100.00;101786.63;5049860;28;20548;-62
2022/11/11 12:29:40;;;;;;;16.83;12.97;;;;;;;8.93;100.00;101791.84;5050725;28;20181;-61
2022/11/11 12:32:42;;;;;;;14.70;12.10;;;;;;;8.91;100.00;101780.75;5018330;28;20228;-62